createdAt,value
2018-04-19T00:01:44.666Z,12.27
2018-04-19T00:04:13.270Z,12.92
2018-04-19T00:06:41.908Z,12.50
2018-04-19T00:09:10.506Z,12.32
2018-04-19T00:11:39.143Z,12.25
2018-04-19T00:14:07.741Z,12.16
2018-04-19T00:16:36.376Z,12.11
2018-04-19T00:19:04.990Z,12.05
2018-04-19T00:21:33.623Z,12.01
2018-04-19T00:24:02.219Z,12.00
2018-04-19T00:26:30.847Z,11.96
2018-04-19T00:28:59.457Z,11.91
2018-04-19T00:31:28.110Z,12.55
2018-04-19T00:33:56.718Z,12.05
2018-04-19T00:36:25.326Z,12.54
2018-04-19T00:38:53.950Z,12.02
2018-04-19T00:41:22.547Z,11.89
2018-04-19T00:43:51.169Z,11.80
2018-04-19T00:46:19.770Z,12.39
2018-04-19T00:48:48.405Z,11.96
2018-04-19T00:51:17.012Z,11.83
2018-04-19T00:53:45.645Z,11.74
2018-04-19T00:56:14.250Z,11.66
2018-04-19T00:58:42.883Z,11.65
2018-04-19T01:01:11.483Z,11.62
2018-04-19T01:03:40.122Z,11.56
2018-04-19T01:06:08.719Z,11.47
2018-04-19T01:08:37.348Z,12.08
2018-04-19T01:11:05.956Z,11.61
2018-04-19T01:13:34.592Z,11.48
2018-04-19T01:16:03.192Z,11.41
2018-04-19T01:18:31.799Z,11.33
2018-04-19T01:21:00.430Z,11.29
2018-04-19T01:23:29.067Z,11.27
2018-04-19T01:25:57.698Z,11.22
2018-04-19T01:28:26.300Z,11.17
2018-04-19T01:30:54.926Z,11.13
2018-04-19T01:33:24.460Z,11.12
2018-04-19T01:36:26.923Z,11.09
2018-04-19T01:38:55.522Z,11.02
2018-04-19T01:41:24.153Z,11.03
2018-04-19T01:43:52.759Z,11.67
2018-04-19T01:46:21.403Z,11.23
2018-04-19T01:48:50.005Z,11.09
2018-04-19T01:51:18.646Z,11.01
2018-04-19T01:53:47.245Z,10.95
2018-04-19T01:56:15.875Z,10.89
2018-04-19T01:58:44.476Z,10.86
2018-04-19T02:01:13.107Z,10.79
2018-04-19T02:03:41.705Z,10.69
2018-04-19T02:06:10.337Z,10.66
2018-04-19T02:08:38.954Z,10.60
2018-04-19T02:11:07.570Z,10.61
2018-04-19T02:13:36.172Z,11.25
2018-04-19T02:16:04.771Z,10.80
2018-04-19T02:18:33.419Z,10.66
2018-04-19T02:21:02.014Z,10.60
2018-04-19T02:23:30.650Z,10.56
2018-04-19T02:25:59.257Z,10.52
2018-04-19T02:28:27.882Z,11.18
2018-04-19T02:30:56.496Z,10.73
2018-04-19T02:33:25.130Z,10.62
2018-04-19T02:35:53.723Z,11.22
2018-04-19T02:38:22.351Z,10.82
2018-04-19T02:40:50.956Z,10.68
2018-04-19T02:43:19.586Z,10.63
2018-04-19T02:45:48.188Z,10.55
2018-04-19T02:48:16.786Z,10.55
2018-04-19T02:50:45.424Z,11.09
2018-04-19T02:53:14.030Z,10.64
2018-04-19T02:55:42.655Z,10.53
2018-04-19T02:58:11.274Z,10.46
2018-04-19T03:00:39.911Z,10.38
2018-04-19T03:03:08.539Z,10.32
2018-04-19T03:05:37.168Z,10.30
2018-04-19T03:08:05.800Z,10.29
2018-04-19T03:10:34.451Z,10.96
2018-04-19T03:13:03.076Z,10.54
2018-04-19T03:15:31.707Z,10.33
2018-04-19T03:18:00.312Z,10.27
2018-04-19T03:20:28.975Z,10.23
2018-04-19T03:22:57.551Z,10.21
2018-04-19T03:25:26.152Z,10.20
2018-04-19T03:27:54.783Z,10.17
2018-04-19T03:30:23.378Z,10.16
2018-04-19T03:32:52.015Z,10.15
2018-04-19T03:35:20.623Z,10.14
2018-04-19T03:37:49.517Z,10.14
2018-04-19T03:40:18.121Z,10.07
2018-04-19T03:42:46.753Z,10.08
2018-04-19T03:45:15.358Z,10.09
2018-04-19T03:47:43.991Z,10.11
2018-04-19T03:50:12.599Z,10.09
2018-04-19T03:52:41.260Z,10.08
2018-04-19T03:55:09.893Z,10.07
2018-04-19T03:57:38.786Z,10.06
2018-04-19T04:00:07.457Z,10.08
2018-04-19T04:02:36.061Z,10.09
2018-04-19T04:05:04.697Z,10.07
2018-04-19T04:07:33.313Z,10.06
2018-04-19T04:10:01.952Z,10.11
2018-04-19T04:12:30.550Z,10.15
2018-04-19T04:14:59.626Z,10.17
2018-04-19T04:18:05.660Z,10.18
2018-04-19T04:21:08.072Z,10.14
2018-04-19T04:23:54.705Z,10.07
2018-04-19T04:26:23.524Z,10.12
2018-04-19T04:28:52.440Z,10.15
2018-04-19T04:31:21.672Z,10.16
2018-04-19T04:33:50.972Z,10.16
2018-04-19T04:36:19.981Z,10.21
2018-04-19T04:38:48.589Z,10.26
2018-04-19T04:41:17.228Z,10.92
2018-04-19T04:43:45.888Z,10.58
2018-04-19T04:46:14.504Z,10.50
2018-04-19T04:48:43.140Z,10.51
2018-04-19T04:51:12.103Z,10.56
2018-04-19T04:53:41.149Z,10.60
2018-04-19T04:56:09.920Z,10.63
2018-04-19T04:58:38.581Z,10.67
2018-04-19T05:01:07.198Z,10.73
2018-04-19T05:03:35.821Z,10.76
2018-04-19T05:06:04.635Z,10.79
2018-04-19T05:08:33.511Z,10.84
2018-04-19T05:11:02.110Z,10.93
2018-04-19T05:13:30.707Z,11.00
2018-04-19T05:15:59.530Z,11.08
2018-04-19T05:18:28.334Z,11.15
2018-04-19T05:20:56.973Z,11.24
2018-04-19T05:23:25.644Z,11.33
2018-04-19T05:25:54.270Z,11.44
2018-04-19T05:28:22.871Z,11.51
2018-04-19T05:30:51.692Z,11.60
2018-04-19T05:33:20.281Z,11.70
2018-04-19T05:35:48.919Z,11.81
2018-04-19T05:38:17.528Z,12.49
2018-04-19T05:40:46.191Z,12.26
2018-04-19T05:43:14.949Z,12.28
2018-04-19T05:45:43.578Z,12.36
2018-04-19T05:48:12.666Z,12.42
2018-04-19T05:50:41.422Z,12.55
2018-04-19T05:53:10.221Z,12.66
2018-04-19T05:55:38.976Z,12.77
2018-04-19T05:58:07.999Z,12.92
2018-04-19T06:00:36.650Z,13.05
2018-04-19T06:03:05.336Z,13.18
2018-04-19T06:05:34.298Z,13.92
2018-04-19T06:08:03.123Z,13.72
2018-04-19T06:10:32.080Z,13.77
2018-04-19T06:13:00.707Z,13.91
2018-04-19T06:15:29.683Z,14.03
2018-04-19T06:17:58.547Z,14.74
2018-04-19T06:20:27.213Z,15.06
2018-04-19T06:22:56.099Z,14.79
2018-04-19T06:25:24.954Z,14.86
2018-04-19T06:27:53.711Z,15.00
2018-04-19T06:30:22.484Z,15.09
2018-04-19T06:32:51.078Z,15.87
2018-04-19T06:35:19.678Z,15.72
2018-04-19T06:37:48.283Z,15.74
2018-04-19T06:40:17.009Z,15.88
2018-04-19T06:42:45.837Z,16.07
2018-04-19T06:45:14.711Z,16.31
2018-04-19T06:47:43.330Z,16.47
2018-04-19T06:50:12.262Z,16.70
2018-04-19T06:52:41.111Z,16.94
2018-04-19T06:55:12.963Z,17.12
2018-04-19T06:57:45.408Z,17.34
2018-04-19T07:00:27.820Z,17.54
2018-04-19T07:02:59.585Z,17.81
2018-04-19T07:05:34.246Z,18.01
2018-04-19T07:08:02.795Z,18.27
2018-04-19T07:10:31.611Z,18.55
2018-04-19T07:13:00.514Z,19.31
2018-04-19T07:15:29.150Z,19.32
2018-04-19T07:17:57.753Z,19.44
2018-04-19T07:20:26.419Z,19.65
2018-04-19T07:22:55.546Z,19.89
2018-04-19T07:25:24.222Z,20.08
2018-04-19T07:27:52.833Z,20.87
2018-04-19T07:30:22.007Z,21.28
2018-04-19T07:32:50.743Z,21.55
2018-04-19T07:35:19.342Z,21.80
2018-04-19T07:37:48.185Z,21.57
2018-04-19T07:40:16.802Z,21.69
2018-04-19T07:42:45.777Z,21.68
2018-04-19T07:45:14.395Z,21.63
2018-04-19T07:47:43.300Z,21.89
2018-04-19T07:50:12.140Z,21.84
2018-04-19T07:52:40.770Z,22.00
2018-04-19T07:55:09.375Z,22.31
2018-04-19T07:57:38.191Z,22.40
2018-04-19T08:00:06.871Z,23.28
2018-04-19T08:02:35.756Z,22.86
2018-04-19T08:05:04.355Z,22.95
2018-04-19T08:07:33.115Z,22.89
2018-04-19T08:10:01.818Z,23.04
2018-04-19T08:12:31.516Z,22.81
2018-04-19T08:15:02.573Z,23.23
2018-04-19T08:17:33.992Z,23.48
2018-04-19T08:20:02.606Z,23.64
2018-04-19T08:22:31.449Z,24.33
2018-04-19T08:25:00.381Z,23.91
2018-04-19T08:27:31.828Z,24.02
2018-04-19T08:30:00.460Z,23.92
2018-04-19T08:32:29.073Z,24.04
2018-04-19T08:34:57.720Z,24.22
2018-04-19T08:37:26.338Z,24.38
2018-04-19T08:39:55.249Z,24.61
2018-04-19T08:42:23.969Z,24.53
2018-04-19T08:44:52.612Z,24.72
2018-04-19T08:47:21.210Z,24.67
2018-04-19T08:49:49.977Z,24.71
2018-04-19T08:52:18.596Z,24.89
2018-04-19T08:54:47.221Z,25.11
2018-04-19T08:57:16.521Z,25.21
2018-04-19T08:59:47.002Z,25.48
2018-04-19T09:02:15.629Z,25.68
2018-04-19T09:04:44.362Z,25.79
2018-04-19T09:07:12.975Z,25.91
2018-04-19T09:09:41.633Z,25.72
2018-04-19T09:12:10.270Z,25.72
2018-04-19T09:14:39.901Z,25.84
2018-04-19T09:17:12.791Z,25.92
2018-04-19T09:19:41.782Z,26.22
2018-04-19T09:22:18.263Z,26.43
2018-04-19T09:25:00.763Z,26.64
2018-04-19T09:27:33.605Z,26.83
2018-04-19T09:30:03.287Z,27.45
2018-04-19T09:32:32.467Z,27.03
2018-04-19T09:35:03.743Z,27.50
2018-04-19T09:37:35.136Z,27.38
2018-04-19T09:40:05.580Z,27.92
2018-04-19T09:42:34.504Z,27.82
2018-04-19T09:45:03.110Z,27.75
2018-04-19T09:47:31.863Z,27.80
2018-04-19T09:50:01.254Z,27.58
2018-04-19T09:52:30.399Z,27.36
2018-04-19T09:54:59.035Z,27.86
2018-04-19T09:57:28.276Z,27.96
2018-04-19T10:00:03.769Z,27.75
2018-04-19T10:02:35.651Z,27.80
2018-04-19T10:05:07.989Z,28.72
2018-04-19T10:07:40.492Z,28.48
2018-04-19T10:10:09.174Z,28.25
2018-04-19T10:12:40.698Z,28.39
2018-04-19T10:15:10.777Z,27.92
2018-04-19T10:17:41.703Z,27.93
2018-04-19T10:20:10.978Z,28.10
2018-04-19T10:22:40.084Z,28.85
2018-04-19T10:25:13.863Z,28.23
2018-04-19T10:27:55.060Z,28.87
2018-04-19T10:30:25.220Z,28.27
2018-04-19T10:32:55.399Z,28.42
2018-04-19T10:35:24.140Z,28.34
2018-04-19T10:37:52.739Z,28.15
2018-04-19T10:40:21.438Z,28.42
2018-04-19T10:42:50.933Z,28.28
2018-04-19T10:45:22.758Z,28.41
2018-04-19T10:47:51.367Z,28.53
2018-04-19T10:50:20.039Z,28.54
2018-04-19T10:52:48.604Z,28.82
2018-04-19T10:55:17.236Z,28.89
2018-04-19T10:57:46.048Z,28.70
2018-04-19T11:00:14.670Z,28.81
2018-04-19T11:02:43.269Z,28.55
2018-04-19T11:05:11.897Z,28.80
2018-04-19T11:07:40.502Z,29.08
2018-04-19T11:10:09.136Z,29.13
2018-04-19T11:12:37.752Z,28.94
2018-04-19T11:15:06.348Z,29.17
2018-04-19T11:17:35.265Z,28.84
2018-04-19T11:20:03.876Z,29.84
2018-04-19T11:22:32.509Z,29.14
2018-04-19T11:25:01.109Z,28.69
2018-04-19T11:27:29.737Z,28.69
2018-04-19T11:29:58.339Z,30.01
2018-04-19T11:32:26.974Z,29.58
2018-04-19T11:34:55.574Z,29.65
2018-04-19T11:37:24.206Z,29.67
2018-04-19T11:39:52.812Z,29.73
2018-04-19T11:42:21.478Z,29.59
2018-04-19T11:44:50.088Z,29.75
2018-04-19T11:47:18.722Z,29.59
2018-04-19T11:49:47.329Z,30.59
2018-04-19T11:52:15.965Z,29.83
2018-04-19T11:54:44.568Z,29.86
2018-04-19T11:57:13.414Z,30.06
2018-04-19T11:59:42.034Z,30.17
2018-04-19T12:02:11.668Z,30.76
2018-04-19T12:04:40.250Z,29.88
2018-04-19T12:07:08.896Z,30.49
2018-04-19T12:09:37.502Z,29.58
2018-04-19T12:12:06.102Z,29.72
2018-04-19T12:14:34.730Z,29.71
2018-04-19T12:17:03.343Z,30.08
2018-04-19T12:19:31.973Z,30.08
2018-04-19T12:22:00.581Z,29.69
2018-04-19T12:24:29.817Z,29.91
2018-04-19T12:26:58.590Z,29.98
2018-04-19T12:29:27.217Z,29.40
2018-04-19T12:31:55.830Z,30.39
2018-04-19T12:34:24.474Z,29.26
2018-04-19T12:36:53.222Z,29.29
2018-04-19T12:39:22.182Z,29.41
2018-04-19T12:41:50.839Z,29.48
2018-04-19T12:44:19.667Z,29.48
2018-04-19T12:46:48.266Z,29.34
2018-04-19T12:49:17.360Z,29.98
2018-04-19T12:51:45.970Z,30.11
2018-04-19T12:54:15.615Z,30.11
2018-04-19T12:56:44.294Z,29.16
2018-04-19T12:59:13.116Z,29.26
2018-04-19T13:01:44.713Z,29.91
2018-04-19T13:04:13.489Z,29.79
2018-04-19T13:06:42.544Z,29.65
2018-04-19T13:09:11.138Z,29.35
2018-04-19T13:11:40.110Z,29.51
2018-04-19T13:14:08.759Z,29.35
2018-04-19T13:16:37.555Z,29.52
2018-04-19T13:19:06.301Z,29.21
2018-04-19T13:21:35.097Z,29.36
2018-04-19T13:24:05.326Z,29.83
2018-04-19T13:26:33.955Z,30.87
2018-04-19T13:29:02.560Z,29.69
2018-04-19T13:31:31.194Z,29.93
2018-04-19T13:33:59.827Z,30.12
2018-04-19T13:36:28.459Z,29.93
2018-04-19T13:38:57.078Z,30.17
2018-04-19T13:41:26.073Z,29.89
2018-04-19T13:43:54.743Z,30.15
2018-04-19T13:46:23.483Z,30.46
2018-04-19T13:48:52.085Z,30.70
2018-04-19T13:51:20.691Z,30.90
2018-04-19T13:53:49.328Z,30.80
2018-04-19T13:56:17.939Z,30.79
2018-04-19T13:58:46.572Z,30.47
2018-04-19T14:01:15.173Z,30.88
2018-04-19T14:03:43.806Z,31.01
2018-04-19T14:06:12.406Z,30.81
2018-04-19T14:08:41.042Z,30.99
2018-04-19T14:11:09.643Z,30.39
2018-04-19T14:13:38.275Z,30.11
2018-04-19T14:16:06.873Z,30.10
2018-04-19T14:18:35.493Z,30.31
2018-04-19T14:21:04.093Z,30.15
2018-04-19T14:23:32.780Z,30.61
2018-04-19T14:26:01.425Z,30.76
2018-04-19T14:28:30.062Z,30.26
2018-04-19T14:30:58.658Z,30.07
2018-04-19T14:33:27.324Z,29.99
2018-04-19T14:35:55.929Z,30.30
2018-04-19T14:38:24.528Z,30.12
2018-04-19T14:40:53.168Z,30.07
2018-04-19T14:43:21.768Z,30.06
2018-04-19T14:45:52.741Z,29.92
2018-04-19T14:48:21.339Z,30.14
2018-04-19T14:50:50.039Z,30.19
2018-04-19T14:53:18.634Z,30.43
2018-04-19T14:55:47.298Z,30.43
2018-04-19T14:58:15.908Z,30.32
2018-04-19T15:00:44.570Z,30.41
2018-04-19T15:03:13.137Z,30.34
2018-04-19T15:05:41.759Z,30.95
2018-04-19T15:08:10.364Z,29.99
2018-04-19T15:10:38.999Z,29.89
2018-04-19T15:13:07.589Z,30.03
2018-04-19T15:15:36.215Z,29.82
2018-04-19T15:18:12.078Z,30.23
2018-04-19T15:20:40.745Z,30.61
2018-04-19T15:23:09.372Z,30.64
2018-04-19T15:25:38.585Z,30.92
2018-04-19T15:28:07.209Z,31.19
2018-04-19T15:30:35.806Z,31.68
2018-04-19T15:33:04.447Z,31.95
2018-04-19T15:35:33.051Z,32.48
2018-04-19T15:38:01.685Z,32.58
2018-04-19T15:40:30.284Z,34.06
2018-04-19T15:42:58.917Z,33.56
2018-04-19T15:45:27.516Z,33.51
2018-04-19T15:47:56.212Z,33.26
2018-04-19T15:50:24.750Z,33.01
2018-04-19T15:52:53.416Z,33.48
2018-04-19T15:55:22.100Z,34.57
2018-04-19T15:57:50.965Z,34.77
2018-04-19T16:00:19.712Z,34.78
2018-04-19T16:02:49.098Z,34.02
2018-04-19T16:05:17.875Z,34.93
2018-04-19T16:07:46.560Z,33.83
2018-04-19T16:10:15.190Z,33.44
2018-04-19T16:12:43.799Z,33.61
2018-04-19T16:15:12.454Z,33.40
2018-04-19T16:17:41.357Z,33.33
2018-04-19T16:20:10.178Z,33.58
2018-04-19T16:22:38.914Z,33.59
2018-04-19T16:25:09.848Z,33.31
2018-04-19T16:27:38.504Z,33.38
2018-04-19T16:30:07.146Z,33.38
2018-04-19T16:32:35.738Z,33.09
2018-04-19T16:35:04.371Z,32.35
2018-04-19T16:37:33.040Z,32.06
2018-04-19T16:40:01.602Z,31.74
2018-04-19T16:42:33.005Z,31.09
2018-04-19T16:45:01.760Z,30.28
2018-04-19T16:47:32.673Z,30.62
2018-04-19T16:50:01.357Z,29.12
2018-04-19T16:52:29.951Z,28.29
2018-04-19T16:54:58.780Z,28.13
2018-04-19T16:57:27.490Z,27.71
2018-04-19T16:59:56.248Z,27.14
2018-04-19T17:02:24.843Z,26.87
2018-04-19T17:04:53.608Z,27.76
2018-04-19T17:07:22.250Z,27.56
2018-04-19T17:09:50.850Z,26.12
2018-04-19T17:12:19.495Z,25.67
2018-04-19T17:14:48.093Z,25.33
2018-04-19T17:17:16.710Z,26.62
2018-04-19T17:19:45.525Z,25.62
2018-04-19T17:22:15.154Z,25.35
2018-04-19T17:24:43.840Z,25.05
2018-04-19T17:27:12.490Z,25.98
2018-04-19T17:29:41.515Z,25.73
2018-04-19T17:32:10.158Z,24.45
2018-04-19T17:34:38.904Z,24.40
2018-04-19T17:37:07.539Z,24.34
2018-04-19T17:39:36.215Z,24.18
2018-04-19T17:42:04.977Z,24.00
2018-04-19T17:44:34.795Z,23.80
2018-04-19T17:47:03.417Z,23.43
2018-04-19T17:49:32.049Z,23.15
2018-04-19T17:52:00.976Z,22.96
2018-04-19T17:54:29.626Z,22.73
2018-04-19T17:56:58.317Z,22.53
2018-04-19T17:59:26.994Z,22.37
2018-04-19T18:01:55.594Z,22.19
2018-04-19T18:04:25.105Z,22.05
2018-04-19T18:06:53.682Z,21.93
2018-04-19T18:09:22.912Z,21.76
2018-04-19T18:11:53.470Z,21.61
2018-04-19T18:14:22.096Z,21.45
2018-04-19T18:16:50.701Z,21.31
2018-04-19T18:19:19.323Z,21.22
2018-04-19T18:21:47.917Z,21.09
2018-04-19T18:24:16.552Z,20.99
2018-04-19T18:26:51.509Z,20.88
2018-04-19T18:29:20.184Z,20.76
2018-04-19T18:31:49.327Z,20.65
2018-04-19T18:34:18.035Z,20.55
2018-04-19T18:36:47.304Z,20.41
2018-04-19T18:39:15.935Z,20.32
2018-04-19T18:41:46.423Z,20.18
2018-04-19T18:44:15.450Z,20.03
2018-04-19T18:46:44.524Z,20.55
2018-04-19T18:49:14.009Z,20.05
2018-04-19T18:51:45.485Z,19.83
2018-04-19T18:54:14.701Z,19.69
2018-04-19T18:56:43.422Z,19.58
2018-04-19T18:59:15.666Z,20.10
2018-04-19T19:01:44.907Z,19.60
2018-04-19T19:04:14.744Z,19.44
2018-04-19T19:06:45.391Z,19.35
2018-04-19T19:09:14.274Z,19.26
2018-04-19T19:11:43.771Z,19.80
2018-04-19T19:14:18.502Z,19.32
2018-04-19T19:16:50.299Z,19.10
2018-04-19T19:19:57.319Z,19.64
2018-04-19T19:22:26.876Z,19.00
2018-04-19T19:24:57.134Z,18.80
2018-04-19T19:27:27.270Z,19.36
2018-04-19T19:29:56.493Z,18.87
2018-04-19T19:32:25.400Z,18.71
2018-04-19T19:34:54.610Z,19.22
2018-04-19T19:37:23.752Z,18.70
2018-04-19T19:39:54.267Z,18.50
2018-04-19T19:42:24.819Z,18.35
2018-04-19T19:44:53.595Z,18.21
2018-04-19T19:47:22.238Z,18.13
2018-04-19T19:49:57.881Z,18.08
2018-04-19T19:52:45.837Z,17.98
2018-04-19T19:55:15.998Z,17.88
2018-04-19T19:57:52.048Z,17.78
2018-04-19T20:00:32.780Z,17.73
2018-04-19T20:03:05.025Z,17.62
2018-04-19T20:05:33.875Z,17.59
2018-04-19T20:08:03.522Z,17.56
2018-04-19T20:10:34.265Z,17.49
2018-04-19T20:13:10.481Z,17.43
2018-04-19T20:15:40.037Z,17.37
2018-04-19T20:18:19.220Z,17.34
2018-04-19T20:20:56.662Z,17.25
2018-04-19T20:23:32.606Z,17.17
2018-04-19T20:26:06.620Z,17.15
2018-04-19T20:28:35.506Z,17.12
2018-04-19T20:31:06.388Z,17.11
2018-04-19T20:33:36.723Z,17.74
2018-04-19T20:36:05.954Z,17.29
2018-04-19T20:38:38.055Z,17.15
2018-04-19T20:41:07.321Z,17.07
2018-04-19T20:43:38.477Z,17.00
2018-04-19T20:46:09.174Z,16.97
2018-04-19T20:48:40.945Z,16.94
2018-04-19T20:51:11.378Z,16.89
2018-04-19T20:53:41.559Z,16.87
2018-04-19T20:56:12.532Z,16.82
2018-04-19T20:58:43.681Z,16.79
2018-04-19T21:01:13.896Z,16.75
2018-04-19T21:03:52.885Z,16.66
2018-04-19T21:06:29.753Z,16.65
2018-04-19T21:09:02.735Z,16.60
2018-04-19T21:11:33.224Z,16.58
2018-04-19T21:14:03.024Z,16.50
2018-04-19T21:16:33.959Z,17.13
2018-04-19T21:19:04.421Z,16.69
2018-04-19T21:21:39.896Z,16.59
2018-04-19T21:24:10.598Z,16.52
2018-04-19T21:26:39.621Z,16.46
2018-04-19T21:29:09.616Z,17.05
2018-04-19T21:31:39.191Z,16.62
2018-04-19T21:34:08.706Z,16.48
2018-04-19T21:36:46.026Z,16.39
2018-04-19T21:39:16.316Z,16.30
2018-04-19T21:41:47.197Z,16.21
2018-04-19T21:44:18.132Z,16.15
2018-04-19T21:46:48.140Z,16.78
2018-04-19T21:49:17.814Z,16.30
2018-04-19T21:51:50.664Z,16.17
2018-04-19T21:54:20.031Z,16.74
2018-04-19T21:56:51.513Z,16.25
2018-04-19T21:59:20.961Z,16.15
2018-04-19T22:01:50.456Z,16.13
2018-04-19T22:04:19.432Z,16.13
2018-04-19T22:06:49.429Z,16.18
2018-04-19T22:09:28.362Z,16.11
2018-04-19T22:11:57.523Z,16.12
2018-04-19T22:14:26.751Z,16.14
2018-04-19T22:16:56.000Z,16.12
2018-04-19T22:19:25.367Z,16.01
2018-04-19T22:21:54.881Z,15.91
2018-04-19T22:24:25.850Z,15.83
2018-04-19T22:26:55.712Z,15.71
2018-04-19T22:29:26.375Z,15.65
2018-04-19T22:31:55.096Z,15.53
2018-04-19T22:34:24.674Z,15.56
2018-04-19T22:36:53.879Z,16.25
2018-04-19T22:39:23.279Z,15.79
2018-04-19T22:41:52.838Z,15.67
2018-04-19T22:44:21.699Z,15.62
2018-04-19T22:46:51.057Z,15.58
2018-04-19T22:49:20.048Z,16.17
2018-04-19T22:51:48.847Z,15.75
2018-04-19T22:54:18.078Z,15.60
2018-04-19T22:56:47.262Z,15.55
2018-04-19T22:59:16.658Z,15.52
2018-04-19T23:01:45.798Z,15.51
2018-04-19T23:04:14.762Z,15.49
2018-04-19T23:06:43.763Z,15.48
2018-04-19T23:09:12.854Z,15.49
2018-04-19T23:11:42.831Z,15.47
2018-04-19T23:14:11.965Z,15.45
2018-04-19T23:16:41.468Z,16.04
2018-04-19T23:19:10.322Z,15.61
2018-04-19T23:21:49.519Z,15.51
2018-04-19T23:24:19.128Z,15.43
2018-04-19T23:26:48.196Z,15.37
2018-04-19T23:29:17.365Z,15.24
2018-04-19T23:31:45.903Z,15.16
2018-04-19T23:34:14.498Z,15.12
2018-04-19T23:36:43.132Z,14.98
2018-04-19T23:39:12.595Z,14.91
2018-04-19T23:41:41.399Z,14.98
2018-04-19T23:44:10.206Z,14.97
2018-04-19T23:46:39.738Z,14.91
2018-04-19T23:49:08.203Z,14.86
2018-04-19T23:51:36.839Z,14.81
2018-04-19T23:54:05.434Z,14.71
2018-04-19T23:56:34.084Z,14.65
2018-04-19T23:59:02.689Z,14.58
